YBBA weather

Barraba Airport
New South Wales, Australia

Public forecast

Using degrees Celsius for public forecast. Weather courtesy of forecast.io.

Closest aviation weather report (METAR) to Barraba Airport

Closest report is Narrabri Airport, 40.2 nm (74.5 km) W. Retrieved 2019/10/14 11:00 UTC (56 minutes ago):

YNBR 141100Z AUTO 08007KT 9999 // NCD 23/04 Q1010

Closest aviation forecast (TAF) to Barraba Airport

Closest forecast is Tamworth Airport, 44.0 nm (81.4 km) SSE. Retrieved 2019/10/14 06:36 UTC (5 hours ago):

TAF YSTW 140533Z 1406/1424 29008KT CAVOK FM140800 11008KT CAVOK